createdAt,value
2022-08-03T00:01:49.571Z,98679.03
2022-08-03T00:04:16.064Z,98678.41
2022-08-03T00:06:43.269Z,98670.75
2022-08-03T00:09:10.325Z,98669.28
2022-08-03T00:11:37.040Z,98677.00
2022-08-03T00:14:07.603Z,98667.66
2022-08-03T00:16:34.340Z,98687.25
2022-08-03T00:19:02.169Z,98690.28
2022-08-03T00:21:29.262Z,98686.41
2022-08-03T00:23:56.201Z,98677.72
2022-08-03T00:26:22.970Z,98660.44
2022-08-03T00:28:50.457Z,98657.38
2022-08-03T00:31:26.477Z,98659.41
2022-08-03T00:34:04.999Z,98648.56
2022-08-03T00:36:32.538Z,98650.66
2022-08-03T00:38:58.947Z,98645.78
2022-08-03T00:41:25.341Z,98624.06
2022-08-03T00:43:51.747Z,98641.66
2022-08-03T00:46:21.726Z,98631.63
2022-08-03T00:48:53.244Z,98641.94
2022-08-03T00:51:21.596Z,98651.00
2022-08-03T00:53:48.150Z,98639.63
2022-08-03T00:56:16.061Z,98644.19
2022-08-03T00:58:45.038Z,98634.44
2022-08-03T01:01:12.500Z,98641.09
2022-08-03T01:03:39.614Z,98638.50
2022-08-03T01:06:20.019Z,98633.88
2022-08-03T01:08:58.550Z,98634.00
2022-08-03T01:11:36.941Z,98642.28
2022-08-03T01:14:51.838Z,98640.72
2022-08-03T01:17:40.088Z,98642.91
2022-08-03T01:20:11.631Z,98640.44
2022-08-03T01:23:16.262Z,98633.44
2022-08-03T01:26:06.108Z,98637.38
2022-08-03T01:28:54.637Z,98633.38
2022-08-03T01:31:26.230Z,98604.50
2022-08-03T01:34:01.741Z,98611.22
2022-08-03T01:36:35.319Z,98599.53
2022-08-03T01:39:09.205Z,98599.94
2022-08-03T01:41:42.450Z,98585.78
2022-08-03T01:44:28.580Z,98569.91
2022-08-03T01:47:00.812Z,98570.56
2022-08-03T01:49:30.544Z,98582.13
2022-08-03T01:52:04.284Z,98575.81
2022-08-03T01:54:40.721Z,98568.16
2022-08-03T01:57:08.505Z,98566.25
2022-08-03T01:59:36.321Z,98563.31
2022-08-03T02:02:27.725Z,98555.97
2022-08-03T02:04:55.659Z,98556.66
2022-08-03T02:07:23.576Z,98552.38
2022-08-03T02:09:52.534Z,98539.41
2022-08-03T02:12:20.784Z,98540.16
2022-08-03T02:14:49.447Z,98542.72
2022-08-03T02:17:16.575Z,98542.22
2022-08-03T02:19:43.892Z,98548.38
2022-08-03T02:22:12.943Z,98537.50
2022-08-03T02:24:40.003Z,98525.19
2022-08-03T02:27:14.922Z,98522.16
2022-08-03T02:29:42.520Z,98519.78
2022-08-03T02:32:12.573Z,98523.63
2022-08-03T02:34:42.205Z,98532.00
2022-08-03T02:37:11.960Z,98527.84
2022-08-03T02:39:41.006Z,98511.97
2022-08-03T02:42:09.719Z,98529.56
2022-08-03T02:44:41.549Z,98520.00
2022-08-03T02:47:11.665Z,98494.66
2022-08-03T02:49:51.025Z,98484.72
2022-08-03T02:52:21.542Z,98489.63
2022-08-03T02:54:51.434Z,98488.63
2022-08-03T02:57:20.501Z,98479.63
2022-08-03T02:59:49.928Z,98468.75
2022-08-03T03:02:18.503Z,98478.59
2022-08-03T03:05:01.316Z,98484.00
2022-08-03T03:07:46.878Z,98472.78
2022-08-03T03:10:22.142Z,98459.19
2022-08-03T03:12:54.988Z,98449.88
2022-08-03T03:15:24.649Z,98467.81
2022-08-03T03:17:54.557Z,98482.72
2022-08-03T03:20:29.332Z,98479.66
2022-08-03T03:22:59.564Z,98449.63
2022-08-03T03:25:26.526Z,98454.56
2022-08-03T03:27:53.260Z,98456.59
2022-08-03T03:30:19.687Z,98450.22
2022-08-03T03:32:46.473Z,98447.56
2022-08-03T03:35:14.855Z,98436.28
2022-08-03T03:37:41.259Z,98426.41
2022-08-03T03:40:09.650Z,98421.28
2022-08-03T03:42:38.670Z,98411.59
2022-08-03T03:45:06.743Z,98395.81
2022-08-03T03:47:34.201Z,98407.44
2022-08-03T03:50:02.113Z,98397.19
2022-08-03T03:52:28.565Z,98403.31
2022-08-03T03:55:00.485Z,98399.53
2022-08-03T03:57:27.856Z,98408.88
2022-08-03T03:59:54.391Z,98393.25
2022-08-03T04:02:20.952Z,98397.88
2022-08-03T04:05:05.747Z,98409.22
2022-08-03T04:08:03.011Z,98413.25
2022-08-03T04:10:52.813Z,98364.06
2022-08-03T04:13:21.707Z,98390.31
2022-08-03T04:15:50.270Z,98398.25
2022-08-03T04:18:19.388Z,98400.84
2022-08-03T04:20:48.773Z,98399.16
2022-08-03T04:23:19.596Z,98410.53
2022-08-03T04:25:49.020Z,98413.28
2022-08-03T04:28:30.125Z,98425.94
2022-08-03T04:31:03.286Z,98409.03
2022-08-03T04:33:32.434Z,98429.25
2022-08-03T04:36:03.690Z,98406.75
2022-08-03T04:38:36.574Z,98428.66
2022-08-03T04:41:03.565Z,98443.81
2022-08-03T04:43:32.760Z,98433.75
2022-08-03T04:46:01.108Z,98444.50
2022-08-03T04:48:28.446Z,98444.44
2022-08-03T04:50:55.453Z,98444.06
2022-08-03T04:53:23.264Z,98458.31
2022-08-03T04:55:49.787Z,98458.09
2022-08-03T04:58:17.767Z,98471.50
2022-08-03T05:00:45.847Z,98475.69
2022-08-03T05:03:19.450Z,98485.03
2022-08-03T05:05:50.893Z,98484.31
2022-08-03T05:08:20.535Z,98476.94
2022-08-03T05:10:54.128Z,98499.78
2022-08-03T05:13:20.553Z,98513.03
2022-08-03T05:15:46.982Z,98513.59
2022-08-03T05:18:14.317Z,98523.56
2022-08-03T05:20:41.258Z,98531.84
2022-08-03T05:23:07.820Z,98521.16
2022-08-03T05:25:34.321Z,98536.53
2022-08-03T05:28:00.919Z,98557.38
2022-08-03T05:30:33.671Z,98575.25
2022-08-03T05:33:02.549Z,98574.94
2022-08-03T05:35:55.643Z,98581.28
2022-08-03T05:38:28.139Z,98596.34
2022-08-03T05:40:57.593Z,98594.84
2022-08-03T05:43:44.182Z,98607.59
2022-08-03T05:46:12.441Z,98595.25
2022-08-03T05:48:40.032Z,98587.25
2022-08-03T05:51:07.945Z,98605.44
2022-08-03T05:53:35.447Z,98616.38
2022-08-03T05:56:13.238Z,98621.09
2022-08-03T05:58:45.893Z,98655.47
2022-08-03T06:01:12.454Z,98680.22
2022-08-03T06:03:39.727Z,98754.88
2022-08-03T06:06:06.453Z,98782.16
2022-08-03T06:08:32.995Z,98821.22
2022-08-03T06:10:59.607Z,98839.19
2022-08-03T06:13:25.983Z,98871.28
2022-08-03T06:15:52.429Z,98881.44
2022-08-03T06:18:19.072Z,98870.63
2022-08-03T06:20:45.531Z,98902.16
2022-08-03T06:23:16.080Z,98911.66
2022-08-03T06:25:44.752Z,98914.00
2022-08-03T06:28:35.375Z,98954.06
2022-08-03T06:30:59.335Z,98955.09
2022-08-03T06:34:31.161Z,98921.13
2022-08-03T06:36:13.681Z,98968.69
2022-08-03T06:38:40.845Z,98958.69
2022-08-03T06:41:07.980Z,98967.06
2022-08-03T06:43:38.026Z,98966.63
2022-08-03T06:46:24.839Z,99003.69
2022-08-03T06:48:52.933Z,99049.28
2022-08-03T06:51:19.586Z,99046.53
2022-08-03T06:53:45.970Z,99031.28
2022-08-03T06:56:12.367Z,99060.41
2022-08-03T06:58:38.748Z,99075.75
2022-08-03T07:01:05.274Z,99072.06
2022-08-03T07:03:31.783Z,99063.34
2022-08-03T07:05:59.744Z,99075.59
2022-08-03T07:08:34.306Z,99084.69
2022-08-03T07:11:01.954Z,99091.06
2022-08-03T07:13:28.355Z,99078.03
2022-08-03T07:15:56.586Z,99103.44
2022-08-03T07:18:29.087Z,99095.94
2022-08-03T07:20:59.706Z,99099.81
2022-08-03T07:23:26.085Z,99112.91
2022-08-03T07:25:52.831Z,99104.16
2022-08-03T07:28:19.943Z,99102.94
2022-08-03T07:30:46.937Z,99105.94
2022-08-03T07:33:14.177Z,99107.56
2022-08-03T07:35:43.270Z,99100.06
2022-08-03T07:38:09.771Z,99090.56
2022-08-03T07:40:36.273Z,99091.72
2022-08-03T07:43:03.721Z,99082.88
2022-08-03T07:45:31.639Z,99087.22
2022-08-03T07:47:58.947Z,99089.34
2022-08-03T07:50:26.486Z,99075.41
2022-08-03T07:52:54.001Z,99081.91
2022-08-03T07:55:25.273Z,99084.69
2022-08-03T07:58:19.153Z,99093.47
2022-08-03T08:00:48.945Z,99074.97
2022-08-03T08:03:15.406Z,99093.22
2022-08-03T08:05:41.867Z,99086.94
2022-08-03T08:08:09.025Z,99077.09
2022-08-03T08:10:35.927Z,99081.09
2022-08-03T08:13:04.023Z,99079.00
2022-08-03T08:15:31.580Z,99058.59
2022-08-03T08:17:59.944Z,99061.56
2022-08-03T08:20:34.988Z,99056.28
2022-08-03T08:23:22.312Z,99059.88
2022-08-03T08:25:54.103Z,99051.16
2022-08-03T08:28:32.908Z,99068.28
2022-08-03T08:31:00.651Z,99067.78
2022-08-03T08:33:37.344Z,99040.69
2022-08-03T08:36:15.558Z,99060.72
2022-08-03T08:38:44.527Z,99054.94
2022-08-03T08:41:12.916Z,99032.16
2022-08-03T08:43:40.064Z,99067.63
2022-08-03T08:46:10.294Z,99068.16
2022-08-03T08:48:41.804Z,99054.47
2022-08-03T08:51:09.872Z,99058.91
2022-08-03T08:53:37.402Z,99060.22
2022-08-03T08:56:05.303Z,99058.38
2022-08-03T08:58:37.977Z,99055.31
2022-08-03T09:01:05.787Z,99046.84
2022-08-03T09:03:34.230Z,99058.91
2022-08-03T09:06:02.632Z,99047.56
2022-08-03T09:08:32.038Z,99048.88
2022-08-03T09:10:59.502Z,99056.00
2022-08-03T09:13:26.193Z,99052.41
2022-08-03T09:16:14.894Z,99051.91
2022-08-03T09:18:54.381Z,99052.25
2022-08-03T09:21:34.314Z,99052.50
2022-08-03T09:24:05.655Z,99001.09
2022-08-03T09:26:38.630Z,99056.91
2022-08-03T09:29:14.562Z,99032.75
2022-08-03T09:31:46.734Z,99019.44
2022-08-03T09:34:16.425Z,99036.00
2022-08-03T09:36:46.367Z,99035.94
2022-08-03T09:39:18.730Z,99016.69
2022-08-03T09:41:48.268Z,99027.31
2022-08-03T09:44:24.158Z,99029.66
2022-08-03T09:46:56.304Z,99035.25
2022-08-03T09:49:25.245Z,99021.78
2022-08-03T09:52:37.909Z,99030.66
2022-08-03T09:54:39.214Z,99023.78
2022-08-03T09:57:05.712Z,99025.56
2022-08-03T09:59:34.042Z,99031.38
2022-08-03T10:02:01.900Z,99022.72
2022-08-03T10:04:29.214Z,99015.88
2022-08-03T10:07:10.022Z,99031.59
2022-08-03T10:09:37.621Z,99022.63
2022-08-03T10:12:09.605Z,99029.16
2022-08-03T10:14:37.356Z,99013.91
2022-08-03T10:17:03.993Z,99005.28
2022-08-03T10:19:30.464Z,99009.47
2022-08-03T10:22:03.084Z,98963.06
2022-08-03T10:24:30.844Z,99006.47
2022-08-03T10:27:03.902Z,99004.38
2022-08-03T10:29:42.765Z,98984.31
2022-08-03T10:32:19.809Z,98976.84
2022-08-03T10:34:49.808Z,98975.97
2022-08-03T10:37:17.875Z,98976.25
2022-08-03T10:39:54.552Z,98995.44
2022-08-03T10:42:24.103Z,98999.16
2022-08-03T10:45:14.945Z,98988.81
2022-08-03T10:47:42.057Z,98988.53
2022-08-03T10:50:09.760Z,98992.22
2022-08-03T10:52:40.997Z,98990.16
2022-08-03T10:55:53.527Z,98984.41
2022-08-03T10:58:53.460Z,98987.41
2022-08-03T11:01:58.061Z,98945.66
2022-08-03T11:04:26.597Z,98973.47
2022-08-03T11:07:19.770Z,98981.09
2022-08-03T11:09:48.905Z,98966.25
2022-08-03T11:12:32.306Z,98960.53
2022-08-03T11:15:02.259Z,98963.84
2022-08-03T11:17:29.046Z,98960.91
2022-08-03T11:19:56.845Z,98930.44
2022-08-03T11:22:25.369Z,98956.63
2022-08-03T11:24:54.084Z,98953.91
2022-08-03T11:27:28.676Z,98962.41
2022-08-03T11:30:26.561Z,98967.91
2022-08-03T11:32:57.945Z,98961.25
2022-08-03T11:35:33.759Z,98946.56
2022-08-03T11:38:03.426Z,98948.81
2022-08-03T11:40:36.208Z,98941.81
2022-08-03T11:43:21.643Z,98950.00
2022-08-03T11:46:28.590Z,98948.44
2022-08-03T11:49:09.089Z,98951.56
2022-08-03T11:51:41.071Z,98956.38
2022-08-03T11:54:10.110Z,98951.59
2022-08-03T11:56:48.421Z,98968.22
2022-08-03T11:59:19.881Z,98956.44
2022-08-03T12:01:47.911Z,98937.88
2022-08-03T12:04:16.254Z,98951.19
2022-08-03T12:06:58.384Z,98928.16
2022-08-03T12:09:25.803Z,98934.66
2022-08-03T12:11:59.784Z,98938.94
2022-08-03T12:14:49.019Z,98936.31
2022-08-03T12:17:14.093Z,98922.78
2022-08-03T12:19:44.876Z,98928.81
2022-08-03T12:22:11.564Z,98932.53
2022-08-03T12:24:46.784Z,98942.03
2022-08-03T12:27:23.264Z,98917.97
2022-08-03T12:29:57.215Z,98928.25
2022-08-03T12:32:26.274Z,98921.13
2022-08-03T12:34:52.767Z,98937.72
2022-08-03T12:37:22.571Z,98925.22
2022-08-03T12:40:02.891Z,98923.38
2022-08-03T12:42:39.489Z,98917.97
2022-08-03T12:45:27.563Z,98912.38
2022-08-03T12:47:58.767Z,98900.28
2022-08-03T12:50:31.503Z,98905.63
2022-08-03T12:53:04.527Z,98919.38
2022-08-03T12:55:56.610Z,98903.84
2022-08-03T12:58:36.085Z,98895.97
2022-08-03T13:01:10.154Z,98895.66
2022-08-03T13:03:49.696Z,98898.31
2022-08-03T13:06:19.691Z,98892.53
2022-08-03T13:08:47.964Z,98881.38
2022-08-03T13:11:57.838Z,98880.97
2022-08-03T13:14:19.952Z,98885.06
2022-08-03T13:16:47.563Z,98895.50
2022-08-03T13:19:15.248Z,98891.28
2022-08-03T13:21:53.814Z,98891.66
2022-08-03T13:24:29.759Z,98880.94
2022-08-03T13:26:57.022Z,98875.94
2022-08-03T13:29:23.848Z,98888.81
2022-08-03T13:31:51.287Z,98888.22
2022-08-03T13:34:22.993Z,98876.75
2022-08-03T13:39:57.993Z,98883.56
2022-08-03T13:42:23.058Z,98885.56
2022-08-03T13:44:49.436Z,98880.44
2022-08-03T13:47:16.189Z,98879.63
2022-08-03T13:49:42.907Z,98842.03
2022-08-03T13:52:29.602Z,98872.50
2022-08-03T13:54:56.037Z,98857.81
2022-08-03T13:58:06.616Z,98848.75
2022-08-03T14:00:09.761Z,98865.38
2022-08-03T14:02:36.507Z,98830.31
2022-08-03T14:05:03.022Z,98838.50
2022-08-03T14:07:29.432Z,98855.38
2022-08-03T14:09:56.871Z,98858.66
2022-08-03T14:12:23.366Z,98853.25
2022-08-03T14:14:49.787Z,98861.31
2022-08-03T14:17:16.732Z,98852.16
2022-08-03T14:19:53.015Z,98841.78
2022-08-03T14:22:21.142Z,98851.78
2022-08-03T14:24:49.375Z,98855.78
2022-08-03T14:27:16.188Z,98844.22
2022-08-03T14:29:42.601Z,98844.72
2022-08-03T14:32:11.640Z,98849.59
2022-08-03T14:34:39.300Z,98845.47
2022-08-03T14:37:05.916Z,98837.34
2022-08-03T14:42:21.565Z,98835.50
2022-08-03T14:44:48.055Z,98829.50
2022-08-03T14:47:14.821Z,98830.47
2022-08-03T14:50:31.386Z,98841.38
2022-08-03T14:52:28.274Z,98831.88
2022-08-03T14:54:54.762Z,98834.19
2022-08-03T14:57:21.984Z,98827.44
2022-08-03T14:59:56.267Z,98827.53
2022-08-03T15:02:24.425Z,98823.50
2022-08-03T15:04:51.513Z,98816.19
2022-08-03T15:07:18.707Z,98816.69
2022-08-03T15:09:45.259Z,98792.31
2022-08-03T15:12:11.848Z,98813.66
2022-08-03T15:14:41.457Z,98802.69
2022-08-03T15:17:07.934Z,98801.59
2022-08-03T15:20:03.796Z,98779.97
2022-08-03T15:22:25.227Z,98800.56
2022-08-03T15:25:02.257Z,98800.44
2022-08-03T15:27:29.157Z,98799.97
2022-08-03T15:30:05.485Z,98803.59
2022-08-03T15:32:36.422Z,98800.00
2022-08-03T15:35:03.448Z,98791.84
2022-08-03T15:37:30.260Z,98800.78
2022-08-03T15:39:59.642Z,98785.63
2022-08-03T15:42:30.913Z,98802.94
2022-08-03T15:44:57.326Z,98776.66
2022-08-03T15:47:23.765Z,98791.97
2022-08-03T15:49:50.569Z,98790.63
2022-08-03T15:52:16.992Z,98783.19
2022-08-03T15:54:43.394Z,98788.81
2022-08-03T15:57:09.819Z,98793.97
2022-08-03T15:59:36.334Z,98758.25
2022-08-03T16:02:05.993Z,98785.09
2022-08-03T16:04:33.493Z,98787.13
2022-08-03T16:07:00.095Z,98783.19
2022-08-03T16:09:43.408Z,98765.31
2022-08-03T16:12:11.819Z,98776.47
2022-08-03T16:14:52.377Z,98756.31
2022-08-03T16:17:20.549Z,98793.69
2022-08-03T16:19:47.500Z,98781.84
2022-08-03T16:22:14.359Z,98779.41
2022-08-03T16:24:42.240Z,98779.56
2022-08-03T16:27:17.444Z,98784.78
2022-08-03T16:29:58.021Z,98781.97
2022-08-03T16:32:24.433Z,98779.94
2022-08-03T16:34:50.835Z,98776.88
2022-08-03T16:37:37.744Z,98778.53
2022-08-03T16:40:17.676Z,98774.56
2022-08-03T16:42:46.252Z,98773.00
2022-08-03T16:45:13.395Z,98772.00
2022-08-03T16:47:39.942Z,98764.88
2022-08-03T16:50:15.501Z,98770.25
2022-08-03T16:52:47.031Z,98770.81
2022-08-03T16:55:15.314Z,98779.09
2022-08-03T16:57:58.569Z,98763.81
2022-08-03T17:00:33.792Z,98769.41
2022-08-03T17:03:04.448Z,98777.34
2022-08-03T17:05:46.854Z,98781.53
2022-08-03T17:08:14.415Z,98774.41
2022-08-03T17:10:45.403Z,98778.13
2022-08-03T17:13:21.668Z,98777.56
2022-08-03T17:15:57.987Z,98772.19
2022-08-03T17:18:33.986Z,98774.06
2022-08-03T17:21:05.804Z,98767.28
2022-08-03T17:23:46.502Z,98779.31
2022-08-03T17:26:21.323Z,98770.59
2022-08-03T17:28:57.996Z,98779.38
2022-08-03T17:31:31.826Z,98776.44
2022-08-03T17:34:00.612Z,98781.75
2022-08-03T17:36:47.581Z,98787.72
2022-08-03T17:39:16.946Z,98711.97
2022-08-03T17:41:48.967Z,98780.06
2022-08-03T17:44:28.915Z,98788.03
2022-08-03T17:47:01.564Z,98773.03
2022-08-03T17:49:27.966Z,98776.19
2022-08-03T17:52:01.410Z,98790.72
2022-08-03T17:55:55.831Z,98794.28
2022-08-03T17:58:06.453Z,98790.78
2022-08-03T18:00:59.650Z,98794.28
2022-08-03T18:03:57.950Z,98801.38
2022-08-03T18:06:31.195Z,98786.78
2022-08-03T18:10:03.731Z,98784.06
2022-08-03T18:11:58.133Z,98791.72
2022-08-03T18:14:27.408Z,98796.16
2022-08-03T18:17:01.532Z,98792.31
2022-08-03T18:20:02.008Z,98794.16
2022-08-03T18:22:20.952Z,98801.25
2022-08-03T18:24:52.946Z,98779.63
2022-08-03T18:27:21.160Z,98793.28
2022-08-03T18:29:50.332Z,98802.81
2022-08-03T18:32:20.062Z,98795.84
2022-08-03T18:34:54.156Z,98807.84
2022-08-03T18:37:25.115Z,98802.56
2022-08-03T18:39:55.758Z,98776.97
2022-08-03T18:42:26.282Z,98791.41
2022-08-03T18:44:56.206Z,98794.22
2022-08-03T18:47:50.581Z,98797.78
2022-08-03T18:50:30.532Z,98795.03
2022-08-03T18:53:16.337Z,98801.75
2022-08-03T18:56:08.633Z,98801.88
2022-08-03T18:58:52.397Z,98804.06
2022-08-03T19:02:00.185Z,98795.91
2022-08-03T19:04:34.190Z,98764.72
2022-08-03T19:07:24.892Z,98785.00
2022-08-03T19:09:59.670Z,98784.31
2022-08-03T19:12:53.079Z,98794.34
2022-08-03T19:15:36.652Z,98793.38
2022-08-03T19:18:08.830Z,98799.31
2022-08-03T19:20:37.834Z,98793.28
2022-08-03T19:23:04.340Z,98775.34
2022-08-03T19:25:40.599Z,98803.75
2022-08-03T19:28:09.163Z,98801.59
2022-08-03T19:30:39.592Z,98797.16
2022-08-03T19:33:11.332Z,98801.38
2022-08-03T19:35:55.051Z,98804.41
2022-08-03T19:38:28.146Z,98798.59
2022-08-03T19:40:59.551Z,98801.69
2022-08-03T19:43:33.032Z,98799.34
2022-08-03T19:46:06.883Z,98784.09
2022-08-03T19:48:36.572Z,98810.22
2022-08-03T19:51:12.246Z,98801.03
2022-08-03T19:53:45.122Z,98806.34
2022-08-03T19:56:16.688Z,98796.56
2022-08-03T19:58:43.598Z,98800.34
2022-08-03T20:01:19.824Z,98796.22
2022-08-03T20:03:49.155Z,98798.81
2022-08-03T20:06:19.256Z,98764.47
2022-08-03T20:08:45.888Z,98782.69
2022-08-03T20:11:18.038Z,98790.94
2022-08-03T20:13:48.309Z,98783.53
2022-08-03T20:16:14.981Z,98773.28
2022-08-03T20:18:43.330Z,98764.22
2022-08-03T20:21:15.722Z,98723.78
2022-08-03T20:24:01.726Z,98752.84
2022-08-03T20:26:30.648Z,98758.38
2022-08-03T20:29:09.197Z,98762.47
2022-08-03T20:31:37.742Z,98723.06
2022-08-03T20:34:06.251Z,98752.72
2022-08-03T20:36:33.358Z,98757.53
2022-08-03T20:39:00.208Z,98732.41
2022-08-03T20:41:26.869Z,98739.47
2022-08-03T20:43:53.537Z,98738.56
2022-08-03T20:46:32.745Z,98729.50
2022-08-03T20:49:06.130Z,98704.25
2022-08-03T20:51:49.727Z,98707.97
2022-08-03T20:54:28.755Z,98700.34
2022-08-03T20:56:57.998Z,98638.97
2022-08-03T20:59:36.569Z,98626.72
2022-08-03T21:02:19.701Z,98646.03
2022-08-03T21:04:56.474Z,98648.00
2022-08-03T21:07:45.636Z,98654.50
2022-08-03T21:10:15.660Z,98654.16
2022-08-03T21:16:11.708Z,98628.38
2022-08-03T21:18:42.474Z,98631.22
2022-08-03T21:21:10.690Z,98646.13
2022-08-03T21:23:48.704Z,98642.59
2022-08-03T21:26:24.194Z,98631.38
2022-08-03T21:28:53.943Z,98637.78
2022-08-03T21:31:25.256Z,98645.16
2022-08-03T21:33:57.087Z,98636.09
2022-08-03T21:36:26.368Z,98631.06
2022-08-03T21:38:56.597Z,98619.06
2022-08-03T21:41:25.154Z,98621.19
2022-08-03T21:43:51.690Z,98604.41
2022-08-03T21:46:19.982Z,98613.97
2022-08-03T21:48:54.522Z,98602.44
2022-08-03T21:51:25.030Z,98610.69
2022-08-03T21:54:03.838Z,98591.34
2022-08-03T21:56:41.639Z,98612.63
2022-08-03T21:59:16.033Z,98619.13
2022-08-03T22:01:45.521Z,98622.81
2022-08-03T22:04:50.817Z,98620.63
2022-08-03T22:07:04.384Z,98605.63
2022-08-03T22:09:31.275Z,98593.28
2022-08-03T22:11:57.748Z,98603.97
2022-08-03T22:14:25.638Z,98600.13
2022-08-03T22:16:54.285Z,98602.88
2022-08-03T22:19:21.204Z,98585.41
2022-08-03T22:21:50.694Z,98576.25
2022-08-03T22:24:24.033Z,98581.88
2022-08-03T22:27:09.636Z,98581.56
2022-08-03T22:29:38.317Z,98580.91
2022-08-03T22:32:04.959Z,98563.16
2022-08-03T22:34:31.632Z,98585.13
2022-08-03T22:37:04.805Z,98593.84
2022-08-03T22:39:32.189Z,98569.91
2022-08-03T22:41:59.309Z,98590.38
2022-08-03T22:44:27.096Z,98600.88
2022-08-03T22:46:53.773Z,98581.09
2022-08-03T22:49:20.772Z,98570.03
2022-08-03T22:51:47.428Z,98578.22
2022-08-03T22:54:14.427Z,98558.09
2022-08-03T22:56:41.338Z,98553.53
2022-08-03T22:59:39.141Z,98550.72
2022-08-03T23:02:02.438Z,98543.94
2022-08-03T23:04:44.432Z,98549.03
2022-08-03T23:07:15.059Z,98556.59
2022-08-03T23:09:45.061Z,98557.00
2022-08-03T23:12:16.903Z,98551.63
2022-08-03T23:14:51.763Z,98554.72
2022-08-03T23:17:20.329Z,98566.09
2022-08-03T23:19:47.269Z,98552.13
2022-08-03T23:22:29.492Z,98532.31
2022-08-03T23:24:57.507Z,98542.63
2022-08-03T23:27:24.677Z,98526.59
2022-08-03T23:29:52.383Z,98520.56
2022-08-03T23:32:25.496Z,98523.50
2022-08-03T23:35:14.640Z,98515.53
2022-08-03T23:38:04.117Z,98531.19
2022-08-03T23:40:31.293Z,98531.19
2022-08-03T23:42:58.292Z,98537.81
2022-08-03T23:45:27.764Z,98532.03
2022-08-03T23:47:54.358Z,98531.03
2022-08-03T23:50:21.084Z,98531.59
2022-08-03T23:53:16.933Z,98536.38
2022-08-03T23:56:03.482Z,98518.03
2022-08-03T23:59:00.060Z,98525.88
